Terminal Aerodrome Forecast
Issued by NWS

Home | Current Version | Previous Version | Text Only | Print | Product List | Glossary On
Versions: 1 2 3 4 5 6 7 8 9 10 11 12 13 14 15 16 17 18
000
FTAK31 PAJN 301400 AAA
TAFAWG
TAF AMD
PAWG 301414Z 3014/3112 12008KT P6SM VCSH BKN045 OVC080
     FM301600 13010KT 5SM -RA BR BKN030 OVC050
     FM310100 12006KT 6SM BR VCSH SCT025 OVC040
      AMD LTD TO CLD VIS AND WIND 3014/3015=

USA.gov is the U.S. government's official web portal to all federal, state and local government web resources and services.